sensor_id;sensor_type;location;lat;lon;timestamp;P1;durP1;ratioP1;P2;durP2;ratioP2
13244;SDS011;6689;53.400;12.486;2023-08-08T00:01:56;8.15;;;2.55;;
13244;SDS011;6689;53.400;12.486;2023-08-08T00:04:24;7.93;;;1.85;;
13244;SDS011;6689;53.400;12.486;2023-08-08T00:06:53;5.50;;;1.95;;
13244;SDS011;6689;53.400;12.486;2023-08-08T00:09:22;2.55;;;1.70;;
13244;SDS011;6689;53.400;12.486;2023-08-08T00:11:49;8.02;;;1.70;;
13244;SDS011;6689;53.400;12.486;2023-08-08T00:14:17;12.30;;;1.92;;
13244;SDS011;6689;53.400;12.486;2023-08-08T00:16:44;6.15;;;2.33;;
13244;SDS011;6689;53.400;12.486;2023-08-08T00:19:11;11.13;;;2.55;;
13244;SDS011;6689;53.400;12.486;2023-08-08T00:21:41;6.30;;;2.53;;
13244;SDS011;6689;53.400;12.486;2023-08-08T00:24:08;5.75;;;2.15;;
13244;SDS011;6689;53.400;12.486;2023-08-08T00:26:37;9.23;;;2.20;;
13244;SDS011;6689;53.400;12.486;2023-08-08T00:29:04;4.50;;;1.88;;
13244;SDS011;6689;53.400;12.486;2023-08-08T00:31:32;6.60;;;1.50;;
13244;SDS011;6689;53.400;12.486;2023-08-08T00:33:59;11.50;;;2.22;;
13244;SDS011;6689;53.400;12.486;2023-08-08T00:36:27;7.18;;;2.28;;
13244;SDS011;6689;53.400;12.486;2023-08-08T00:38:54;4.90;;;1.75;;
13244;SDS011;6689;53.400;12.486;2023-08-08T00:41:21;7.43;;;2.70;;
13244;SDS011;6689;53.400;12.486;2023-08-08T00:43:51;3.53;;;1.80;;
13244;SDS011;6689;53.400;12.486;2023-08-08T00:46:21;5.28;;;2.13;;
13244;SDS011;6689;53.400;12.486;2023-08-08T00:48:49;4.05;;;1.77;;
13244;SDS011;6689;53.400;12.486;2023-08-08T00:51:19;5.68;;;1.90;;
13244;SDS011;6689;53.400;12.486;2023-08-08T00:53:47;3.88;;;1.83;;
13244;SDS011;6689;53.400;12.486;2023-08-08T00:56:16;10.60;;;2.38;;
13244;SDS011;6689;53.400;12.486;2023-08-08T00:58:44;5.72;;;1.65;;
13244;SDS011;6689;53.400;12.486;2023-08-08T01:01:13;6.18;;;1.63;;
13244;SDS011;6689;53.400;12.486;2023-08-08T01:03:40;4.60;;;2.22;;
13244;SDS011;6689;53.400;12.486;2023-08-08T01:06:09;6.20;;;1.60;;
13244;SDS011;6689;53.400;12.486;2023-08-08T01:08:42;6.93;;;2.13;;
13244;SDS011;6689;53.400;12.486;2023-08-08T01:11:14;7.05;;;1.90;;
13244;SDS011;6689;53.400;12.486;2023-08-08T01:13:43;3.60;;;1.50;;
13244;SDS011;6689;53.400;12.486;2023-08-08T01:16:12;3.83;;;1.55;;
13244;SDS011;6689;53.400;12.486;2023-08-08T01:18:42;8.45;;;2.55;;
13244;SDS011;6689;53.400;12.486;2023-08-08T01:21:10;5.65;;;1.52;;
13244;SDS011;6689;53.400;12.486;2023-08-08T01:23:41;6.32;;;2.08;;
13244;SDS011;6689;53.400;12.486;2023-08-08T01:26:13;8.80;;;2.05;;
13244;SDS011;6689;53.400;12.486;2023-08-08T01:28:42;4.15;;;2.17;;
13244;SDS011;6689;53.400;12.486;2023-08-08T01:31:10;3.55;;;1.65;;
13244;SDS011;6689;53.400;12.486;2023-08-08T01:33:38;5.18;;;1.63;;
13244;SDS011;6689;53.400;12.486;2023-08-08T01:36:07;5.15;;;1.23;;
13244;SDS011;6689;53.400;12.486;2023-08-08T01:38:41;6.53;;;2.15;;
13244;SDS011;6689;53.400;12.486;2023-08-08T01:41:13;3.22;;;1.25;;
13244;SDS011;6689;53.400;12.486;2023-08-08T01:43:43;5.07;;;2.10;;
13244;SDS011;6689;53.400;12.486;2023-08-08T01:46:12;3.30;;;1.50;;
13244;SDS011;6689;53.400;12.486;2023-08-08T01:48:44;10.13;;;2.08;;
13244;SDS011;6689;53.400;12.486;2023-08-08T01:51:12;3.83;;;1.83;;
13244;SDS011;6689;53.400;12.486;2023-08-08T01:53:39;6.70;;;2.17;;
13244;SDS011;6689;53.400;12.486;2023-08-08T01:56:07;4.78;;;1.70;;
13244;SDS011;6689;53.400;12.486;2023-08-08T01:58:36;5.97;;;2.20;;
13244;SDS011;6689;53.400;12.486;2023-08-08T02:01:03;5.00;;;2.90;;
13244;SDS011;6689;53.400;12.486;2023-08-08T02:03:30;4.65;;;1.75;;
13244;SDS011;6689;53.400;12.486;2023-08-08T02:05:58;6.47;;;2.17;;
13244;SDS011;6689;53.400;12.486;2023-08-08T02:08:26;5.95;;;2.03;;
13244;SDS011;6689;53.400;12.486;2023-08-08T02:10:54;4.20;;;1.88;;
13244;SDS011;6689;53.400;12.486;2023-08-08T02:13:21;6.70;;;1.63;;
13244;SDS011;6689;53.400;12.486;2023-08-08T02:15:50;4.13;;;1.40;;
13244;SDS011;6689;53.400;12.486;2023-08-08T02:18:18;5.63;;;1.67;;
13244;SDS011;6689;53.400;12.486;2023-08-08T02:20:45;3.42;;;1.67;;
13244;SDS011;6689;53.400;12.486;2023-08-08T02:23:12;5.32;;;1.42;;
13244;SDS011;6689;53.400;12.486;2023-08-08T02:25:40;4.65;;;2.08;;
13244;SDS011;6689;53.400;12.486;2023-08-08T02:28:07;4.45;;;2.03;;
13244;SDS011;6689;53.400;12.486;2023-08-08T02:30:34;7.82;;;2.17;;
13244;SDS011;6689;53.400;12.486;2023-08-08T02:33:06;6.38;;;2.67;;
13244;SDS011;6689;53.400;12.486;2023-08-08T02:35:33;6.70;;;2.03;;
13244;SDS011;6689;53.400;12.486;2023-08-08T02:38:00;5.00;;;1.58;;
13244;SDS011;6689;53.400;12.486;2023-08-08T02:40:30;3.67;;;1.60;;
13244;SDS011;6689;53.400;12.486;2023-08-08T02:42:58;4.05;;;1.65;;
13244;SDS011;6689;53.400;12.486;2023-08-08T02:45:25;6.78;;;1.90;;
13244;SDS011;6689;53.400;12.486;2023-08-08T02:47:53;5.68;;;1.80;;
13244;SDS011;6689;53.400;12.486;2023-08-08T02:50:22;5.40;;;2.15;;
13244;SDS011;6689;53.400;12.486;2023-08-08T02:52:49;3.20;;;1.50;;
13244;SDS011;6689;53.400;12.486;2023-08-08T02:55:17;4.55;;;1.88;;
13244;SDS011;6689;53.400;12.486;2023-08-08T02:57:45;3.85;;;1.70;;
13244;SDS011;6689;53.400;12.486;2023-08-08T03:00:12;3.25;;;1.63;;
13244;SDS011;6689;53.400;12.486;2023-08-08T03:02:40;5.38;;;1.85;;
13244;SDS011;6689;53.400;12.486;2023-08-08T03:05:07;5.20;;;1.60;;
13244;SDS011;6689;53.400;12.486;2023-08-08T03:07:36;4.78;;;1.83;;
13244;SDS011;6689;53.400;12.486;2023-08-08T03:10:04;4.78;;;1.73;;
13244;SDS011;6689;53.400;12.486;2023-08-08T03:12:32;3.22;;;1.80;;
13244;SDS011;6689;53.400;12.486;2023-08-08T03:14:59;5.80;;;2.05;;
13244;SDS011;6689;53.400;12.486;2023-08-08T03:17:26;2.53;;;1.95;;
13244;SDS011;6689;53.400;12.486;2023-08-08T03:19:54;4.60;;;1.85;;
13244;SDS011;6689;53.400;12.486;2023-08-08T03:22:21;5.88;;;2.08;;
13244;SDS011;6689;53.400;12.486;2023-08-08T03:24:50;3.47;;;1.35;;
13244;SDS011;6689;53.400;12.486;2023-08-08T03:27:18;4.03;;;1.63;;
13244;SDS011;6689;53.400;12.486;2023-08-08T03:29:47;5.63;;;2.38;;
13244;SDS011;6689;53.400;12.486;2023-08-08T03:32:14;5.35;;;1.77;;
13244;SDS011;6689;53.400;12.486;2023-08-08T03:34:41;4.13;;;1.80;;
13244;SDS011;6689;53.400;12.486;2023-08-08T03:37:09;6.40;;;2.03;;
13244;SDS011;6689;53.400;12.486;2023-08-08T03:39:36;5.75;;;1.77;;
13244;SDS011;6689;53.400;12.486;2023-08-08T03:42:06;2.85;;;1.90;;
13244;SDS011;6689;53.400;12.486;2023-08-08T03:44:33;3.42;;;1.48;;
13244;SDS011;6689;53.400;12.486;2023-08-08T03:47:01;5.70;;;2.17;;
13244;SDS011;6689;53.400;12.486;2023-08-08T03:49:28;2.80;;;1.73;;
13244;SDS011;6689;53.400;12.486;2023-08-08T03:51:55;3.90;;;1.48;;
13244;SDS011;6689;53.400;12.486;2023-08-08T03:54:24;3.30;;;1.63;;
13244;SDS011;6689;53.400;12.486;2023-08-08T03:56:52;3.25;;;1.60;;
13244;SDS011;6689;53.400;12.486;2023-08-08T03:59:21;3.42;;;1.83;;
13244;SDS011;6689;53.400;12.486;2023-08-08T04:01:48;4.82;;;1.80;;
13244;SDS011;6689;53.400;12.486;2023-08-08T04:04:15;6.65;;;1.92;;
13244;SDS011;6689;53.400;12.486;2023-08-08T04:06:43;3.08;;;1.67;;
13244;SDS011;6689;53.400;12.486;2023-08-08T04:09:10;5.07;;;1.50;;
13244;SDS011;6689;53.400;12.486;2023-08-08T04:11:38;4.00;;;2.05;;
13244;SDS011;6689;53.400;12.486;2023-08-08T04:14:07;3.38;;;1.65;;
13244;SDS011;6689;53.400;12.486;2023-08-08T04:16:36;6.75;;;1.75;;
13244;SDS011;6689;53.400;12.486;2023-08-08T04:19:05;3.60;;;2.00;;
13244;SDS011;6689;53.400;12.486;2023-08-08T04:21:32;4.13;;;1.83;;
13244;SDS011;6689;53.400;12.486;2023-08-08T04:23:59;3.40;;;1.60;;
13244;SDS011;6689;53.400;12.486;2023-08-08T04:26:27;3.45;;;1.45;;
13244;SDS011;6689;53.400;12.486;2023-08-08T04:28:54;4.88;;;1.75;;
13244;SDS011;6689;53.400;12.486;2023-08-08T04:31:22;4.43;;;1.80;;
13244;SDS011;6689;53.400;12.486;2023-08-08T04:33:52;7.60;;;2.35;;
13244;SDS011;6689;53.400;12.486;2023-08-08T04:36:25;3.10;;;1.60;;
13244;SDS011;6689;53.400;12.486;2023-08-08T04:38:52;6.57;;;1.92;;
13244;SDS011;6689;53.400;12.486;2023-08-08T04:41:20;6.63;;;2.03;;
13244;SDS011;6689;53.400;12.486;2023-08-08T04:43:49;5.20;;;1.85;;
13244;SDS011;6689;53.400;12.486;2023-08-08T04:46:17;3.28;;;1.90;;
13244;SDS011;6689;53.400;12.486;2023-08-08T04:48:45;3.17;;;1.88;;
13244;SDS011;6689;53.400;12.486;2023-08-08T04:51:14;3.17;;;1.85;;
13244;SDS011;6689;53.400;12.486;2023-08-08T04:53:42;2.85;;;1.60;;
13244;SDS011;6689;53.400;12.486;2023-08-08T04:56:13;3.78;;;1.70;;
13244;SDS011;6689;53.400;12.486;2023-08-08T04:58:40;2.97;;;1.35;;
13244;SDS011;6689;53.400;12.486;2023-08-08T05:01:10;2.42;;;1.60;;
13244;SDS011;6689;53.400;12.486;2023-08-08T05:03:40;4.07;;;1.77;;
13244;SDS011;6689;53.400;12.486;2023-08-08T05:06:07;6.82;;;1.92;;
13244;SDS011;6689;53.400;12.486;2023-08-08T05:08:36;3.50;;;1.45;;
13244;SDS011;6689;53.400;12.486;2023-08-08T05:11:03;3.92;;;1.48;;
13244;SDS011;6689;53.400;12.486;2023-08-08T05:13:30;3.92;;;1.77;;
13244;SDS011;6689;53.400;12.486;2023-08-08T05:15:58;5.10;;;1.60;;
13244;SDS011;6689;53.400;12.486;2023-08-08T05:18:26;4.15;;;1.48;;
13244;SDS011;6689;53.400;12.486;2023-08-08T05:20:53;4.43;;;1.52;;
13244;SDS011;6689;53.400;12.486;2023-08-08T05:23:21;5.72;;;1.85;;
13244;SDS011;6689;53.400;12.486;2023-08-08T05:25:49;3.63;;;1.40;;
13244;SDS011;6689;53.400;12.486;2023-08-08T05:28:17;7.03;;;1.77;;
13244;SDS011;6689;53.400;12.486;2023-08-08T05:30:46;5.22;;;1.63;;
13244;SDS011;6689;53.400;12.486;2023-08-08T05:33:13;5.45;;;1.83;;
13244;SDS011;6689;53.400;12.486;2023-08-08T05:35:40;3.38;;;1.58;;
13244;SDS011;6689;53.400;12.486;2023-08-08T05:38:07;3.85;;;1.63;;
13244;SDS011;6689;53.400;12.486;2023-08-08T05:40:35;2.72;;;1.50;;
13244;SDS011;6689;53.400;12.486;2023-08-08T05:43:04;3.47;;;2.10;;
13244;SDS011;6689;53.400;12.486;2023-08-08T05:45:33;3.88;;;1.65;;
13244;SDS011;6689;53.400;12.486;2023-08-08T05:48:00;3.65;;;1.55;;
13244;SDS011;6689;53.400;12.486;2023-08-08T05:50:28;3.78;;;1.55;;
13244;SDS011;6689;53.400;12.486;2023-08-08T05:52:55;5.07;;;1.80;;
13244;SDS011;6689;53.400;12.486;2023-08-08T05:55:22;3.63;;;1.50;;
13244;SDS011;6689;53.400;12.486;2023-08-08T05:57:50;4.18;;;1.15;;
13244;SDS011;6689;53.400;12.486;2023-08-08T06:00:19;7.47;;;2.50;;
13244;SDS011;6689;53.400;12.486;2023-08-08T06:02:47;2.20;;;1.90;;
13244;SDS011;6689;53.400;12.486;2023-08-08T06:05:16;2.45;;;1.40;;
13244;SDS011;6689;53.400;12.486;2023-08-08T06:07:44;3.13;;;1.95;;
13244;SDS011;6689;53.400;12.486;2023-08-08T06:10:11;3.45;;;1.70;;
13244;SDS011;6689;53.400;12.486;2023-08-08T06:12:39;5.32;;;1.85;;
13244;SDS011;6689;53.400;12.486;2023-08-08T06:15:08;4.38;;;1.67;;
13244;SDS011;6689;53.400;12.486;2023-08-08T06:17:38;5.30;;;1.92;;
13244;SDS011;6689;53.400;12.486;2023-08-08T06:20:05;5.15;;;1.65;;
13244;SDS011;6689;53.400;12.486;2023-08-08T06:22:34;3.63;;;2.70;;
13244;SDS011;6689;53.400;12.486;2023-08-08T06:25:01;2.22;;;1.60;;
13244;SDS011;6689;53.400;12.486;2023-08-08T06:27:29;5.13;;;1.75;;
13244;SDS011;6689;53.400;12.486;2023-08-08T06:29:56;7.55;;;1.63;;
13244;SDS011;6689;53.400;12.486;2023-08-08T06:32:24;4.63;;;1.67;;
13244;SDS011;6689;53.400;12.486;2023-08-08T06:34:54;4.90;;;1.80;;
13244;SDS011;6689;53.400;12.486;2023-08-08T06:37:21;4.40;;;1.73;;
13244;SDS011;6689;53.400;12.486;2023-08-08T06:39:49;4.40;;;1.42;;
13244;SDS011;6689;53.400;12.486;2023-08-08T06:42:16;6.57;;;2.05;;
13244;SDS011;6689;53.400;12.486;2023-08-08T06:44:43;3.97;;;1.70;;
13244;SDS011;6689;53.400;12.486;2023-08-08T06:47:11;6.28;;;1.65;;
13244;SDS011;6689;53.400;12.486;2023-08-08T06:49:38;5.85;;;1.85;;
13244;SDS011;6689;53.400;12.486;2023-08-08T06:52:08;2.95;;;1.30;;
13244;SDS011;6689;53.400;12.486;2023-08-08T06:54:35;4.70;;;1.70;;
13244;SDS011;6689;53.400;12.486;2023-08-08T06:57:03;2.88;;;1.30;;
13244;SDS011;6689;53.400;12.486;2023-08-08T06:59:30;4.47;;;1.80;;
13244;SDS011;6689;53.400;12.486;2023-08-08T07:01:57;4.35;;;1.38;;
13244;SDS011;6689;53.400;12.486;2023-08-08T07:04:25;2.33;;;1.67;;
13244;SDS011;6689;53.400;12.486;2023-08-08T07:06:52;4.30;;;1.58;;
13244;SDS011;6689;53.400;12.486;2023-08-08T07:09:21;3.45;;;1.92;;
13244;SDS011;6689;53.400;12.486;2023-08-08T07:11:50;4.13;;;1.48;;
13244;SDS011;6689;53.400;12.486;2023-08-08T07:14:19;2.20;;;1.42;;
13244;SDS011;6689;53.400;12.486;2023-08-08T07:16:47;4.95;;;1.60;;
13244;SDS011;6689;53.400;12.486;2023-08-08T07:19:15;2.45;;;1.38;;
13244;SDS011;6689;53.400;12.486;2023-08-08T07:21:42;3.72;;;1.63;;
13244;SDS011;6689;53.400;12.486;2023-08-08T07:24:11;4.50;;;1.58;;
13244;SDS011;6689;53.400;12.486;2023-08-08T07:26:40;3.67;;;1.77;;
13244;SDS011;6689;53.400;12.486;2023-08-08T07:29:08;3.47;;;1.42;;
13244;SDS011;6689;53.400;12.486;2023-08-08T07:31:35;2.13;;;1.30;;
13244;SDS011;6689;53.400;12.486;2023-08-08T07:34:04;4.15;;;1.80;;
13244;SDS011;6689;53.400;12.486;2023-08-08T07:36:31;6.05;;;1.63;;
13244;SDS011;6689;53.400;12.486;2023-08-08T07:39:00;3.60;;;1.50;;
13244;SDS011;6689;53.400;12.486;2023-08-08T07:41:28;3.42;;;1.55;;
13244;SDS011;6689;53.400;12.486;2023-08-08T07:43:59;3.42;;;1.40;;
13244;SDS011;6689;53.400;12.486;2023-08-08T07:46:27;2.65;;;1.40;;
13244;SDS011;6689;53.400;12.486;2023-08-08T07:48:54;3.60;;;1.60;;
13244;SDS011;6689;53.400;12.486;2023-08-08T07:51:24;4.88;;;1.58;;
13244;SDS011;6689;53.400;12.486;2023-08-08T07:53:51;7.20;;;1.50;;
13244;SDS011;6689;53.400;12.486;2023-08-08T07:56:19;5.68;;;1.40;;
13244;SDS011;6689;53.400;12.486;2023-08-08T07:58:46;2.72;;;1.35;;
13244;SDS011;6689;53.400;12.486;2023-08-08T08:01:19;2.83;;;1.27;;
13244;SDS011;6689;53.400;12.486;2023-08-08T08:03:47;4.60;;;1.60;;
13244;SDS011;6689;53.400;12.486;2023-08-08T08:06:14;3.67;;;1.95;;
13244;SDS011;6689;53.400;12.486;2023-08-08T08:08:42;4.70;;;1.27;;
13244;SDS011;6689;53.400;12.486;2023-08-08T08:11:10;1.85;;;1.40;;
13244;SDS011;6689;53.400;12.486;2023-08-08T08:13:40;3.90;;;1.40;;
13244;SDS011;6689;53.400;12.486;2023-08-08T08:16:08;3.67;;;1.45;;
13244;SDS011;6689;53.400;12.486;2023-08-08T08:18:38;3.00;;;1.70;;
13244;SDS011;6689;53.400;12.486;2023-08-08T08:21:06;6.70;;;1.70;;
13244;SDS011;6689;53.400;12.486;2023-08-08T08:26:08;2.53;;;1.35;;
13244;SDS011;6689;53.400;12.486;2023-08-08T08:28:37;3.08;;;1.27;;
13244;SDS011;6689;53.400;12.486;2023-08-08T08:31:07;3.42;;;1.25;;
13244;SDS011;6689;53.400;12.486;2023-08-08T08:33:35;2.88;;;1.67;;
13244;SDS011;6689;53.400;12.486;2023-08-08T08:36:04;7.10;;;2.03;;
13244;SDS011;6689;53.400;12.486;2023-08-08T08:38:31;2.45;;;1.50;;
13244;SDS011;6689;53.400;12.486;2023-08-08T08:41:02;3.53;;;1.77;;
13244;SDS011;6689;53.400;12.486;2023-08-08T08:43:31;4.82;;;1.10;;
13244;SDS011;6689;53.400;12.486;2023-08-08T08:45:59;3.05;;;2.08;;
13244;SDS011;6689;53.400;12.486;2023-08-08T08:48:28;3.33;;;1.70;;
13244;SDS011;6689;53.400;12.486;2023-08-08T08:50:56;2.10;;;1.45;;
13244;SDS011;6689;53.400;12.486;2023-08-08T08:53:25;2.33;;;1.48;;
13244;SDS011;6689;53.400;12.486;2023-08-08T08:55:53;2.75;;;1.55;;
13244;SDS011;6689;53.400;12.486;2023-08-08T08:58:22;2.67;;;1.30;;
13244;SDS011;6689;53.400;12.486;2023-08-08T09:00:53;3.75;;;1.42;;
13244;SDS011;6689;53.400;12.486;2023-08-08T09:03:22;4.30;;;2.15;;
13244;SDS011;6689;53.400;12.486;2023-08-08T09:05:50;2.20;;;1.35;;
13244;SDS011;6689;53.400;12.486;2023-08-08T09:08:19;3.05;;;1.20;;
13244;SDS011;6689;53.400;12.486;2023-08-08T09:10:48;2.75;;;1.55;;
13244;SDS011;6689;53.400;12.486;2023-08-08T09:13:16;2.08;;;1.05;;
13244;SDS011;6689;53.400;12.486;2023-08-08T09:15:46;3.13;;;1.30;;
13244;SDS011;6689;53.400;12.486;2023-08-08T09:18:15;4.13;;;1.38;;
13244;SDS011;6689;53.400;12.486;2023-08-08T09:20:49;1.77;;;1.15;;
13244;SDS011;6689;53.400;12.486;2023-08-08T09:23:16;3.80;;;1.38;;
13244;SDS011;6689;53.400;12.486;2023-08-08T09:25:44;3.15;;;1.30;;
13244;SDS011;6689;53.400;12.486;2023-08-08T09:28:12;1.70;;;1.10;;
13244;SDS011;6689;53.400;12.486;2023-08-08T09:30:40;2.03;;;1.17;;
13244;SDS011;6689;53.400;12.486;2023-08-08T09:33:11;1.98;;;1.40;;
13244;SDS011;6689;53.400;12.486;2023-08-08T09:35:38;3.53;;;1.60;;
13244;SDS011;6689;53.400;12.486;2023-08-08T09:38:06;2.22;;;1.23;;
13244;SDS011;6689;53.400;12.486;2023-08-08T09:40:33;3.70;;;1.10;;
13244;SDS011;6689;53.400;12.486;2023-08-08T09:43:01;3.60;;;1.58;;
13244;SDS011;6689;53.400;12.486;2023-08-08T09:45:36;2.00;;;1.05;;
13244;SDS011;6689;53.400;12.486;2023-08-08T09:48:07;3.03;;;1.20;;
13244;SDS011;6689;53.400;12.486;2023-08-08T09:50:34;4.10;;;1.80;;
13244;SDS011;6689;53.400;12.486;2023-08-08T09:53:02;2.17;;;1.10;;
13244;SDS011;6689;53.400;12.486;2023-08-08T09:55:30;2.55;;;1.20;;
13244;SDS011;6689;53.400;12.486;2023-08-08T09:57:59;2.00;;;1.33;;
13244;SDS011;6689;53.400;12.486;2023-08-08T10:00:29;2.58;;;1.48;;
13244;SDS011;6689;53.400;12.486;2023-08-08T10:03:00;2.25;;;1.25;;
13244;SDS011;6689;53.400;12.486;2023-08-08T10:05:28;5.38;;;1.40;;
13244;SDS011;6689;53.400;12.486;2023-08-08T10:07:57;5.93;;;1.55;;
13244;SDS011;6689;53.400;12.486;2023-08-08T10:10:25;2.03;;;1.20;;
13244;SDS011;6689;53.400;12.486;2023-08-08T10:12:54;2.50;;;1.20;;
13244;SDS011;6689;53.400;12.486;2023-08-08T10:15:25;1.98;;;1.20;;
13244;SDS011;6689;53.400;12.486;2023-08-08T10:17:53;6.68;;;1.40;;
13244;SDS011;6689;53.400;12.486;2023-08-08T10:20:23;2.50;;;0.93;;
13244;SDS011;6689;53.400;12.486;2023-08-08T10:26:19;4.68;;;1.17;;
13244;SDS011;6689;53.400;12.486;2023-08-08T10:28:52;2.92;;;0.80;;
13244;SDS011;6689;53.400;12.486;2023-08-08T10:31:22;1.48;;;1.15;;
13244;SDS011;6689;53.400;12.486;2023-08-08T10:33:59;3.20;;;1.13;;
13244;SDS011;6689;53.400;12.486;2023-08-08T10:39:15;3.92;;;1.40;;
13244;SDS011;6689;53.400;12.486;2023-08-08T10:41:44;7.68;;;1.20;;
13244;SDS011;6689;53.400;12.486;2023-08-08T10:44:12;2.33;;;1.30;;
13244;SDS011;6689;53.400;12.486;2023-08-08T10:46:47;2.35;;;1.10;;
13244;SDS011;6689;53.400;12.486;2023-08-08T10:49:15;4.35;;;1.88;;
13244;SDS011;6689;53.400;12.486;2023-08-08T10:51:46;8.35;;;1.67;;
13244;SDS011;6689;53.400;12.486;2023-08-08T10:54:16;2.35;;;0.93;;
13244;SDS011;6689;53.400;12.486;2023-08-08T10:56:50;2.70;;;1.00;;
13244;SDS011;6689;53.400;12.486;2023-08-08T10:59:19;3.13;;;0.93;;
13244;SDS011;6689;53.400;12.486;2023-08-08T11:01:48;10.75;;;1.52;;
13244;SDS011;6689;53.400;12.486;2023-08-08T11:04:17;2.97;;;0.95;;
13244;SDS011;6689;53.400;12.486;2023-08-08T11:06:48;10.82;;;1.42;;
13244;SDS011;6689;53.400;12.486;2023-08-08T11:09:16;1.80;;;1.10;;
13244;SDS011;6689;53.400;12.486;2023-08-08T11:11:44;1.83;;;0.88;;
13244;SDS011;6689;53.400;12.486;2023-08-08T11:14:13;3.55;;;0.90;;
13244;SDS011;6689;53.400;12.486;2023-08-08T11:16:41;3.85;;;0.95;;
13244;SDS011;6689;53.400;12.486;2023-08-08T11:19:09;1.70;;;1.10;;
13244;SDS011;6689;53.400;12.486;2023-08-08T11:21:40;1.77;;;0.77;;
13244;SDS011;6689;53.400;12.486;2023-08-08T11:24:11;2.50;;;1.00;;
13244;SDS011;6689;53.400;12.486;2023-08-08T11:26:39;1.90;;;0.80;;
13244;SDS011;6689;53.400;12.486;2023-08-08T11:29:10;3.97;;;1.00;;
13244;SDS011;6689;53.400;12.486;2023-08-08T11:31:37;3.45;;;1.23;;
13244;SDS011;6689;53.400;12.486;2023-08-08T11:34:05;1.27;;;0.80;;
13244;SDS011;6689;53.400;12.486;2023-08-08T11:36:32;2.15;;;0.85;;
13244;SDS011;6689;53.400;12.486;2023-08-08T11:39:01;1.90;;;0.88;;
13244;SDS011;6689;53.400;12.486;2023-08-08T11:41:34;3.75;;;1.08;;
13244;SDS011;6689;53.400;12.486;2023-08-08T11:44:05;3.10;;;1.00;;
13244;SDS011;6689;53.400;12.486;2023-08-08T11:46:35;5.53;;;0.90;;
13244;SDS011;6689;53.400;12.486;2023-08-08T11:49:09;1.55;;;0.82;;
13244;SDS011;6689;53.400;12.486;2023-08-08T11:51:37;2.22;;;1.10;;
13244;SDS011;6689;53.400;12.486;2023-08-08T11:54:05;1.65;;;0.75;;
13244;SDS011;6689;53.400;12.486;2023-08-08T11:56:35;2.63;;;1.13;;
13244;SDS011;6689;53.400;12.486;2023-08-08T11:59:04;1.75;;;0.80;;
13244;SDS011;6689;53.400;12.486;2023-08-08T12:01:32;1.20;;;0.95;;
13244;SDS011;6689;53.400;12.486;2023-08-08T12:04:04;3.80;;;0.80;;
13244;SDS011;6689;53.400;12.486;2023-08-08T12:06:31;1.17;;;0.80;;
13244;SDS011;6689;53.400;12.486;2023-08-08T12:09:00;3.80;;;1.30;;
13244;SDS011;6689;53.400;12.486;2023-08-08T12:11:29;2.40;;;1.10;;
13244;SDS011;6689;53.400;12.486;2023-08-08T12:14:00;2.00;;;1.10;;
13244;SDS011;6689;53.400;12.486;2023-08-08T12:16:28;2.72;;;1.23;;
13244;SDS011;6689;53.400;12.486;2023-08-08T12:18:56;1.63;;;0.90;;
13244;SDS011;6689;53.400;12.486;2023-08-08T12:21:23;2.70;;;0.90;;
13244;SDS011;6689;53.400;12.486;2023-08-08T12:23:51;1.20;;;0.60;;
13244;SDS011;6689;53.400;12.486;2023-08-08T12:26:19;2.45;;;0.60;;
13244;SDS011;6689;53.400;12.486;2023-08-08T12:28:46;8.48;;;0.88;;
13244;SDS011;6689;53.400;12.486;2023-08-08T12:31:17;1.55;;;0.60;;
13244;SDS011;6689;53.400;12.486;2023-08-08T12:33:44;1.58;;;1.17;;
13244;SDS011;6689;53.400;12.486;2023-08-08T12:36:13;3.28;;;0.90;;
13244;SDS011;6689;53.400;12.486;2023-08-08T12:38:41;3.35;;;0.70;;
13244;SDS011;6689;53.400;12.486;2023-08-08T12:41:08;2.65;;;0.70;;
13244;SDS011;6689;53.400;12.486;2023-08-08T12:43:36;5.18;;;0.80;;
13244;SDS011;6689;53.400;12.486;2023-08-08T12:46:03;3.20;;;0.90;;
13244;SDS011;6689;53.400;12.486;2023-08-08T12:48:32;2.75;;;0.80;;
13244;SDS011;6689;53.400;12.486;2023-08-08T12:51:00;2.45;;;0.70;;
13244;SDS011;6689;53.400;12.486;2023-08-08T12:53:27;3.15;;;1.42;;
13244;SDS011;6689;53.400;12.486;2023-08-08T12:55:55;2.88;;;0.98;;
13244;SDS011;6689;53.400;12.486;2023-08-08T12:58:22;2.20;;;0.80;;
13244;SDS011;6689;53.400;12.486;2023-08-08T13:00:49;1.85;;;0.73;;
13244;SDS011;6689;53.400;12.486;2023-08-08T13:03:17;2.58;;;0.68;;
13244;SDS011;6689;53.400;12.486;2023-08-08T13:05:47;2.38;;;0.85;;
13244;SDS011;6689;53.400;12.486;2023-08-08T13:08:14;4.22;;;0.68;;
13244;SDS011;6689;53.400;12.486;2023-08-08T13:10:41;2.20;;;0.60;;
13244;SDS011;6689;53.400;12.486;2023-08-08T13:13:08;14.38;;;1.77;;
13244;SDS011;6689;53.400;12.486;2023-08-08T13:15:36;2.97;;;1.00;;
13244;SDS011;6689;53.400;12.486;2023-08-08T13:18:04;3.38;;;1.20;;
13244;SDS011;6689;53.400;12.486;2023-08-08T13:20:32;1.30;;;0.63;;
13244;SDS011;6689;53.400;12.486;2023-08-08T13:23:01;2.80;;;1.00;;
13244;SDS011;6689;53.400;12.486;2023-08-08T13:25:29;1.33;;;0.63;;
13244;SDS011;6689;53.400;12.486;2023-08-08T13:27:59;2.42;;;0.90;;
13244;SDS011;6689;53.400;12.486;2023-08-08T13:30:29;2.03;;;1.08;;
13244;SDS011;6689;53.400;12.486;2023-08-08T13:32:57;4.90;;;0.93;;
13244;SDS011;6689;53.400;12.486;2023-08-08T13:35:24;2.58;;;0.80;;
13244;SDS011;6689;53.400;12.486;2023-08-08T13:37:54;2.35;;;0.77;;
13244;SDS011;6689;53.400;12.486;2023-08-08T13:40:23;2.38;;;0.63;;
13244;SDS011;6689;53.400;12.486;2023-08-08T13:42:52;2.60;;;1.00;;
13244;SDS011;6689;53.400;12.486;2023-08-08T13:45:21;2.75;;;0.88;;
13244;SDS011;6689;53.400;12.486;2023-08-08T13:47:49;2.30;;;0.80;;
13244;SDS011;6689;53.400;12.486;2023-08-08T13:50:16;1.73;;;0.73;;
13244;SDS011;6689;53.400;12.486;2023-08-08T13:52:44;1.13;;;0.50;;
13244;SDS011;6689;53.400;12.486;2023-08-08T13:55:11;2.97;;;1.10;;
13244;SDS011;6689;53.400;12.486;2023-08-08T13:57:40;2.35;;;1.17;;
13244;SDS011;6689;53.400;12.486;2023-08-08T14:00:08;2.10;;;0.90;;
13244;SDS011;6689;53.400;12.486;2023-08-08T14:02:39;2.58;;;1.48;;
13244;SDS011;6689;53.400;12.486;2023-08-08T14:05:08;2.58;;;1.42;;
13244;SDS011;6689;53.400;12.486;2023-08-08T14:07:35;3.35;;;1.08;;
13244;SDS011;6689;53.400;12.486;2023-08-08T14:10:05;3.72;;;1.10;;
13244;SDS011;6689;53.400;12.486;2023-08-08T14:12:34;5.82;;;1.27;;
13244;SDS011;6689;53.400;12.486;2023-08-08T14:15:05;1.58;;;0.70;;
13244;SDS011;6689;53.400;12.486;2023-08-08T14:17:34;5.20;;;0.68;;
13244;SDS011;6689;53.400;12.486;2023-08-08T14:20:01;1.45;;;0.90;;
13244;SDS011;6689;53.400;12.486;2023-08-08T14:22:30;2.88;;;0.65;;
13244;SDS011;6689;53.400;12.486;2023-08-08T14:25:00;3.40;;;1.08;;
13244;SDS011;6689;53.400;12.486;2023-08-08T14:27:27;3.58;;;1.40;;
13244;SDS011;6689;53.400;12.486;2023-08-08T14:29:55;2.80;;;0.98;;
13244;SDS011;6689;53.400;12.486;2023-08-08T14:32:24;1.70;;;0.90;;
13244;SDS011;6689;53.400;12.486;2023-08-08T14:34:51;2.40;;;0.88;;
13244;SDS011;6689;53.400;12.486;2023-08-08T14:37:19;2.88;;;1.05;;
13244;SDS011;6689;53.400;12.486;2023-08-08T14:39:46;2.00;;;0.63;;
13244;SDS011;6689;53.400;12.486;2023-08-08T14:42:15;1.40;;;0.60;;
13244;SDS011;6689;53.400;12.486;2023-08-08T14:44:42;1.25;;;0.63;;
13244;SDS011;6689;53.400;12.486;2023-08-08T14:47:12;3.13;;;1.20;;
13244;SDS011;6689;53.400;12.486;2023-08-08T14:49:40;1.35;;;0.70;;
13244;SDS011;6689;53.400;12.486;2023-08-08T14:52:07;5.82;;;0.95;;
13244;SDS011;6689;53.400;12.486;2023-08-08T14:54:36;1.38;;;0.68;;
13244;SDS011;6689;53.400;12.486;2023-08-08T14:57:03;1.25;;;0.65;;
13244;SDS011;6689;53.400;12.486;2023-08-08T14:59:31;3.30;;;0.90;;
13244;SDS011;6689;53.400;12.486;2023-08-08T15:01:58;1.88;;;0.90;;
13244;SDS011;6689;53.400;12.486;2023-08-08T15:04:26;1.40;;;0.60;;